sensor_id;sensor_type;location;lat;lon;timestamp;pressure;altitude;pressure_sealevel;temperature;humidity
10127;BME280;13080;42.608;23.362;2023-05-23T00:02:12;153283.81;;;8.63;100.00
10127;BME280;13080;42.608;23.362;2023-05-23T00:04:40;153296.81;;;8.68;100.00
10127;BME280;13080;42.608;23.362;2023-05-23T00:07:07;153295.50;;;8.67;100.00
10127;BME280;13080;42.608;23.362;2023-05-23T00:09:35;153286.44;;;8.64;100.00
10127;BME280;13080;42.608;23.362;2023-05-23T00:12:02;153283.81;;;8.63;100.00
10127;BME280;13080;42.608;23.362;2023-05-23T00:14:29;153282.53;;;8.62;100.00
10127;BME280;13080;42.608;23.362;2023-05-23T00:16:58;153287.72;;;8.64;100.00
10127;BME280;13080;42.608;23.362;2023-05-23T00:19:25;153285.16;;;8.63;100.00
10127;BME280;13080;42.608;23.362;2023-05-23T00:21:52;153278.63;;;8.61;100.00
10127;BME280;13080;42.608;23.362;2023-05-23T00:24:22;153279.97;;;8.61;100.00
10127;BME280;13080;42.608;23.362;2023-05-23T00:26:51;153283.81;;;8.63;100.00
10127;BME280;13080;42.608;23.362;2023-05-23T00:29:18;153278.63;;;8.61;100.00
10127;BME280;13080;42.608;23.362;2023-05-23T00:31:45;153287.72;;;8.64;100.00
10127;BME280;13080;42.608;23.362;2023-05-23T00:34:12;153283.81;;;8.63;100.00
10127;BME280;13080;42.608;23.362;2023-05-23T00:36:39;153282.53;;;8.62;100.00
10127;BME280;13080;42.608;23.362;2023-05-23T00:39:06;153276.06;;;8.60;100.00
10127;BME280;13080;42.608;23.362;2023-05-23T00:41:33;153270.88;;;8.58;100.00
10127;BME280;13080;42.608;23.362;2023-05-23T00:44:01;153270.88;;;8.58;100.00
10127;BME280;13080;42.608;23.362;2023-05-23T00:46:30;153264.38;;;8.55;100.00
10127;BME280;13080;42.608;23.362;2023-05-23T00:48:57;153264.38;;;8.55;100.00
10127;BME280;13080;42.608;23.362;2023-05-23T00:51:24;153265.69;;;8.56;100.00
10127;BME280;13080;42.608;23.362;2023-05-23T00:53:51;153257.91;;;8.52;100.00
10127;BME280;13080;42.608;23.362;2023-05-23T00:56:19;153261.78;;;8.54;100.00
10127;BME280;13080;42.608;23.362;2023-05-23T00:58:46;153256.63;;;8.52;100.00
10127;BME280;13080;42.608;23.362;2023-05-23T01:01:14;153256.63;;;8.52;100.00
10127;BME280;13080;42.608;23.362;2023-05-23T01:03:41;153263.09;;;8.55;100.00
10127;BME280;13080;42.608;23.362;2023-05-23T01:06:10;153264.38;;;8.55;100.00
10127;BME280;13080;42.608;23.362;2023-05-23T01:08:37;153264.38;;;8.55;100.00
10127;BME280;13080;42.608;23.362;2023-05-23T01:11:10;153273.44;;;8.59;100.00
10127;BME280;13080;42.608;23.362;2023-05-23T01:13:41;153269.59;;;8.57;100.00
10127;BME280;13080;42.608;23.362;2023-05-23T01:16:16;153266.97;;;8.56;100.00
10127;BME280;13080;42.608;23.362;2023-05-23T01:18:47;153265.69;;;8.56;100.00
10127;BME280;13080;42.608;23.362;2023-05-23T01:21:17;153266.97;;;8.56;100.00
10127;BME280;13080;42.608;23.362;2023-05-23T01:24:14;153257.91;;;8.52;100.00
10127;BME280;13080;42.608;23.362;2023-05-23T01:27:00;153265.69;;;8.56;100.00
10127;BME280;13080;42.608;23.362;2023-05-23T01:29:34;153279.97;;;8.61;100.00
10127;BME280;13080;42.608;23.362;2023-05-23T01:32:07;153285.16;;;8.63;100.00
10127;BME280;13080;42.608;23.362;2023-05-23T01:34:36;153289.00;;;8.65;100.00
10127;BME280;13080;42.608;23.362;2023-05-23T01:37:07;153299.41;;;8.69;100.00
10127;BME280;13080;42.608;23.362;2023-05-23T01:39:34;153292.91;;;8.66;100.00
10127;BME280;13080;42.608;23.362;2023-05-23T01:42:01;153321.44;;;8.78;100.00
10127;BME280;13080;42.608;23.362;2023-05-23T01:44:30;153324.03;;;8.79;100.00
10127;BME280;13080;42.608;23.362;2023-05-23T01:46:57;153327.94;;;8.80;100.00
10127;BME280;13080;42.608;23.362;2023-05-23T01:49:25;153327.94;;;8.80;100.00
10127;BME280;13080;42.608;23.362;2023-05-23T01:51:52;153324.03;;;8.79;100.00
10127;BME280;13080;42.608;23.362;2023-05-23T01:54:19;153312.34;;;8.74;100.00
10127;BME280;13080;42.608;23.362;2023-05-23T01:56:47;153307.16;;;8.72;100.00
10127;BME280;13080;42.608;23.362;2023-05-23T01:59:14;153296.81;;;8.68;100.00
10127;BME280;13080;42.608;23.362;2023-05-23T02:01:42;153294.19;;;8.67;100.00
10127;BME280;13080;42.608;23.362;2023-05-23T02:04:09;153287.72;;;8.64;100.00
10127;BME280;13080;42.608;23.362;2023-05-23T02:06:36;153278.63;;;8.61;100.00
10127;BME280;13080;42.608;23.362;2023-05-23T02:09:03;153263.09;;;8.55;100.00
10127;BME280;13080;42.608;23.362;2023-05-23T02:11:30;153261.78;;;8.54;100.00
10127;BME280;13080;42.608;23.362;2023-05-23T02:13:56;153260.47;;;8.53;100.00
10127;BME280;13080;42.608;23.362;2023-05-23T02:16:23;153247.53;;;8.48;100.00
10127;BME280;13080;42.608;23.362;2023-05-23T02:18:52;153225.44;;;8.40;100.00
10127;BME280;13080;42.608;23.362;2023-05-23T02:21:20;153218.97;;;8.37;100.00
10127;BME280;13080;42.608;23.362;2023-05-23T02:23:47;153194.34;;;8.27;100.00
10127;BME280;13080;42.608;23.362;2023-05-23T02:26:14;153198.19;;;8.29;100.00
10127;BME280;13080;42.608;23.362;2023-05-23T02:28:41;153193.00;;;8.27;100.00
10127;BME280;13080;42.608;23.362;2023-05-23T02:31:07;153194.34;;;8.27;100.00
10127;BME280;13080;42.608;23.362;2023-05-23T02:33:34;153189.16;;;8.25;100.00
10127;BME280;13080;42.608;23.362;2023-05-23T02:36:03;153187.81;;;8.25;100.00
10127;BME280;13080;42.608;23.362;2023-05-23T02:38:29;153193.00;;;8.27;100.00
10127;BME280;13080;42.608;23.362;2023-05-23T02:40:56;153182.63;;;8.23;100.00
10127;BME280;13080;42.608;23.362;2023-05-23T02:43:23;153181.34;;;8.22;100.00
10127;BME280;13080;42.608;23.362;2023-05-23T02:45:50;153174.88;;;8.20;100.00
10127;BME280;13080;42.608;23.362;2023-05-23T02:48:16;153173.59;;;8.19;100.00
10127;BME280;13080;42.608;23.362;2023-05-23T02:50:43;153165.81;;;8.16;100.00
10127;BME280;13080;42.608;23.362;2023-05-23T02:53:11;153160.63;;;8.14;100.00
10127;BME280;13080;42.608;23.362;2023-05-23T02:55:38;153159.28;;;8.13;100.00
10127;BME280;13080;42.608;23.362;2023-05-23T02:58:05;153147.63;;;8.09;100.00
10127;BME280;13080;42.608;23.362;2023-05-23T03:00:32;153161.91;;;8.15;100.00
10127;BME280;13080;42.608;23.362;2023-05-23T03:02:58;153160.63;;;8.14;100.00
10127;BME280;13080;42.608;23.362;2023-05-23T03:05:25;153159.28;;;8.13;100.00
10127;BME280;13080;42.608;23.362;2023-05-23T03:07:52;153163.19;;;8.15;100.00
10127;BME280;13080;42.608;23.362;2023-05-23T03:10:21;153174.88;;;8.20;100.00
10127;BME280;13080;42.608;23.362;2023-05-23T03:12:47;153180.06;;;8.22;100.00
10127;BME280;13080;42.608;23.362;2023-05-23T03:15:14;153181.34;;;8.22;100.00
10127;BME280;13080;42.608;23.362;2023-05-23T03:17:41;153189.16;;;8.25;100.00
10127;BME280;13080;42.608;23.362;2023-05-23T03:20:09;153202.09;;;8.30;100.00
10127;BME280;13080;42.608;23.362;2023-05-23T03:22:36;153202.09;;;8.30;100.00
10127;BME280;13080;42.608;23.362;2023-05-23T03:25:04;153208.56;;;8.33;100.00
10127;BME280;13080;42.608;23.362;2023-05-23T03:27:32;153198.19;;;8.29;100.00
10127;BME280;13080;42.608;23.362;2023-05-23T03:29:59;153217.66;;;8.37;100.00
10127;BME280;13080;42.608;23.362;2023-05-23T03:32:26;153224.16;;;8.39;100.00
10127;BME280;13080;42.608;23.362;2023-05-23T03:34:52;153225.44;;;8.40;100.00
10127;BME280;13080;42.608;23.362;2023-05-23T03:37:19;153252.72;;;8.50;100.00
10127;BME280;13080;42.608;23.362;2023-05-23T03:39:46;153283.81;;;8.63;100.00
10127;BME280;13080;42.608;23.362;2023-05-23T03:42:13;153281.25;;;8.62;100.00
10127;BME280;13080;42.608;23.362;2023-05-23T03:44:41;153314.97;;;8.75;100.00
10127;BME280;13080;42.608;23.362;2023-05-23T03:47:08;153325.34;;;8.79;100.00
10127;BME280;13080;42.608;23.362;2023-05-23T03:49:35;153324.03;;;8.79;100.00
10127;BME280;13080;42.608;23.362;2023-05-23T03:52:01;153364.22;;;8.94;100.00
10127;BME280;13080;42.608;23.362;2023-05-23T03:54:28;153383.72;;;9.02;100.00
10127;BME280;13080;42.608;23.362;2023-05-23T03:56:55;153397.97;;;9.08;100.00
10127;BME280;13080;42.608;23.362;2023-05-23T03:59:22;153416.16;;;9.15;100.00
10127;BME280;13080;42.608;23.362;2023-05-23T04:01:50;153452.47;;;9.29;100.00
10127;BME280;13080;42.608;23.362;2023-05-23T04:04:17;153496.59;;;9.47;100.00
10127;BME280;13080;42.608;23.362;2023-05-23T04:06:45;153499.16;;;9.48;100.00
10127;BME280;13080;42.608;23.362;2023-05-23T04:09:12;153505.66;;;9.50;100.00
10127;BME280;13080;42.608;23.362;2023-05-23T04:11:39;153505.66;;;9.50;100.00
10127;BME280;13080;42.608;23.362;2023-05-23T04:14:06;153504.38;;;9.50;100.00
10127;BME280;13080;42.608;23.362;2023-05-23T04:16:33;153512.19;;;9.53;100.00
10127;BME280;13080;42.608;23.362;2023-05-23T04:19:01;153521.25;;;9.56;100.00
10127;BME280;13080;42.608;23.362;2023-05-23T04:21:28;153522.53;;;9.57;100.00
10127;BME280;13080;42.608;23.362;2023-05-23T04:23:55;153518.66;;;9.55;100.00
10127;BME280;13080;42.608;23.362;2023-05-23T04:26:22;153522.53;;;9.57;100.00
10127;BME280;13080;42.608;23.362;2023-05-23T04:28:49;153542.03;;;9.65;100.00
10127;BME280;13080;42.608;23.362;2023-05-23T04:31:18;153526.44;;;9.58;100.00
10127;BME280;13080;42.608;23.362;2023-05-23T04:33:46;153536.81;;;9.63;100.00
10127;BME280;13080;42.608;23.362;2023-05-23T04:36:14;153544.59;;;9.66;100.00
10127;BME280;13080;42.608;23.362;2023-05-23T04:38:42;153561.47;;;9.72;100.00
10127;BME280;13080;42.608;23.362;2023-05-23T04:41:09;153588.72;;;9.83;100.00
10127;BME280;13080;42.608;23.362;2023-05-23T04:43:36;153579.63;;;9.79;100.00
10127;BME280;13080;42.608;23.362;2023-05-23T04:46:07;153600.41;;;9.88;100.00
10127;BME280;13080;42.608;23.362;2023-05-23T04:48:34;153610.81;;;9.92;100.00
10127;BME280;13080;42.608;23.362;2023-05-23T04:51:01;153653.63;;;10.09;100.00
10127;BME280;13080;42.608;23.362;2023-05-23T04:53:33;153680.91;;;10.19;100.00
10127;BME280;13080;42.608;23.362;2023-05-23T04:56:01;153696.50;;;10.26;100.00
10127;BME280;13080;42.608;23.362;2023-05-23T04:58:28;153729.03;;;10.38;100.00
10127;BME280;13080;42.608;23.362;2023-05-23T05:00:56;153726.41;;;10.37;100.00
10127;BME280;13080;42.608;23.362;2023-05-23T05:03:23;153723.81;;;10.36;100.00
10127;BME280;13080;42.608;23.362;2023-05-23T05:05:50;153768.00;;;10.54;100.00
10127;BME280;13080;42.608;23.362;2023-05-23T05:08:18;153800.41;;;10.67;100.00
10127;BME280;13080;42.608;23.362;2023-05-23T05:10:46;153852.38;;;10.87;100.00
10127;BME280;13080;42.608;23.362;2023-05-23T05:13:13;153918.66;;;11.13;100.00
10127;BME280;13080;42.608;23.362;2023-05-23T05:15:40;153990.13;;;11.41;100.00
10127;BME280;13080;42.608;23.362;2023-05-23T05:18:07;154042.13;;;11.62;100.00
10127;BME280;13080;42.608;23.362;2023-05-23T05:20:34;154016.09;;;11.52;100.00
10127;BME280;13080;42.608;23.362;2023-05-23T05:23:00;153978.44;;;11.37;100.00
10127;BME280;13080;42.608;23.362;2023-05-23T05:25:27;153971.91;;;11.34;100.00
10127;BME280;13080;42.608;23.362;2023-05-23T05:28:00;153943.31;;;11.23;100.00
10127;BME280;13080;42.608;23.362;2023-05-23T05:30:30;153934.25;;;11.19;100.00
10127;BME280;13080;42.608;23.362;2023-05-23T05:32:58;153939.47;;;11.21;100.00
10127;BME280;13080;42.608;23.362;2023-05-23T05:35:26;153948.53;;;11.25;100.00
10127;BME280;13080;42.608;23.362;2023-05-23T05:37:53;153968.03;;;11.33;100.00
10127;BME280;13080;42.608;23.362;2023-05-23T05:40:20;154005.69;;;11.48;100.00
10127;BME280;13080;42.608;23.362;2023-05-23T05:42:47;154030.44;;;11.57;100.00
10127;BME280;13080;42.608;23.362;2023-05-23T05:45:15;154045.97;;;11.63;100.00
10127;BME280;13080;42.608;23.362;2023-05-23T05:47:43;154069.44;;;11.73;100.00
10127;BME280;13080;42.608;23.362;2023-05-23T05:50:10;154116.25;;;11.91;100.00
10127;BME280;13080;42.608;23.362;2023-05-23T05:52:38;154173.47;;;12.14;100.00
10127;BME280;13080;42.608;23.362;2023-05-23T05:55:05;154204.66;;;12.26;100.00
10127;BME280;13080;42.608;23.362;2023-05-23T05:57:33;154211.16;;;12.28;100.00
10127;BME280;13080;42.608;23.362;2023-05-23T05:59:59;154224.19;;;12.34;100.00
10127;BME280;13080;42.608;23.362;2023-05-23T06:02:27;154260.59;;;12.48;100.00
10127;BME280;13080;42.608;23.362;2023-05-23T06:04:54;154273.56;;;12.53;100.00
10127;BME280;13080;42.608;23.362;2023-05-23T06:07:21;154343.84;;;12.81;100.00
10127;BME280;13080;42.608;23.362;2023-05-23T06:09:48;154364.63;;;12.89;100.00
10127;BME280;13080;42.608;23.362;2023-05-23T06:12:14;154408.88;;;13.06;100.00
10127;BME280;13080;42.608;23.362;2023-05-23T06:14:41;154464.91;;;13.28;100.00
10127;BME280;13080;42.608;23.362;2023-05-23T06:17:08;154526.09;;;13.52;100.00
10127;BME280;13080;42.608;23.362;2023-05-23T06:19:36;154574.22;;;13.71;100.00
10127;BME280;13080;42.608;23.362;2023-05-23T06:22:04;154602.88;;;13.83;99.86
10127;BME280;13080;42.608;23.362;2023-05-23T06:24:31;154643.22;;;13.99;98.11
10127;BME280;13080;42.608;23.362;2023-05-23T06:26:57;154669.28;;;14.09;99.44
10127;BME280;13080;42.608;23.362;2023-05-23T06:29:24;154697.94;;;14.20;97.63
10127;BME280;13080;42.608;23.362;2023-05-23T06:31:51;154713.56;;;14.26;98.28
10127;BME280;13080;42.608;23.362;2023-05-23T06:34:18;154750.00;;;14.41;94.94
10127;BME280;13080;42.608;23.362;2023-05-23T06:36:46;154761.72;;;14.45;95.75
10127;BME280;13080;42.608;23.362;2023-05-23T06:39:13;154766.94;;;14.47;94.01
10127;BME280;13080;42.608;23.362;2023-05-23T06:41:41;154744.81;;;14.39;95.01
10127;BME280;13080;42.608;23.362;2023-05-23T06:44:08;154708.34;;;14.24;95.13
10127;BME280;13080;42.608;23.362;2023-05-23T06:46:35;154714.84;;;14.27;93.18
10127;BME280;13080;42.608;23.362;2023-05-23T06:49:01;154705.72;;;14.23;95.93
10127;BME280;13080;42.608;23.362;2023-05-23T06:51:28;154645.84;;;14.00;96.73
10127;BME280;13080;42.608;23.362;2023-05-23T06:53:57;154654.94;;;14.03;99.50
10127;BME280;13080;42.608;23.362;2023-05-23T06:56:24;154697.94;;;14.20;97.24
10127;BME280;13080;42.608;23.362;2023-05-23T06:58:51;154746.09;;;14.39;95.16
10127;BME280;13080;42.608;23.362;2023-05-23T07:01:18;154770.88;;;14.49;97.73
10127;BME280;13080;42.608;23.362;2023-05-23T07:03:44;154770.88;;;14.49;98.85
10127;BME280;13080;42.608;23.362;2023-05-23T07:06:11;154820.38;;;14.68;94.49
10127;BME280;13080;42.608;23.362;2023-05-23T07:08:38;154886.84;;;14.94;92.93
10127;BME280;13080;42.608;23.362;2023-05-23T07:11:06;154910.28;;;15.04;90.54
10127;BME280;13080;42.608;23.362;2023-05-23T07:13:33;154948.09;;;15.18;89.75
10127;BME280;13080;42.608;23.362;2023-05-23T07:16:00;154968.91;;;15.27;91.33
10127;BME280;13080;42.608;23.362;2023-05-23T07:18:27;155008.03;;;15.42;91.26
10127;BME280;13080;42.608;23.362;2023-05-23T07:20:53;155023.69;;;15.48;89.36
10127;BME280;13080;42.608;23.362;2023-05-23T07:23:21;155099.31;;;15.78;90.87
10127;BME280;13080;42.608;23.362;2023-05-23T07:25:49;155096.75;;;15.77;87.58
10127;BME280;13080;42.608;23.362;2023-05-23T07:28:18;155086.31;;;15.73;90.20
10127;BME280;13080;42.608;23.362;2023-05-23T07:30:45;155126.72;;;15.89;87.58
10127;BME280;13080;42.608;23.362;2023-05-23T07:33:12;155156.69;;;16.00;87.38
10127;BME280;13080;42.608;23.362;2023-05-23T07:35:39;155218.00;;;16.25;88.13
10127;BME280;13080;42.608;23.362;2023-05-23T07:38:06;155211.47;;;16.22;86.74
10127;BME280;13080;42.608;23.362;2023-05-23T07:40:33;155232.38;;;16.30;85.93
10127;BME280;13080;42.608;23.362;2023-05-23T07:43:00;155270.16;;;16.45;89.13
10127;BME280;13080;42.608;23.362;2023-05-23T07:45:29;155268.88;;;16.45;88.48
10127;BME280;13080;42.608;23.362;2023-05-23T07:47:55;155297.56;;;16.56;86.47
10127;BME280;13080;42.608;23.362;2023-05-23T07:50:22;155284.53;;;16.51;82.49
10127;BME280;13080;42.608;23.362;2023-05-23T07:52:52;155291.03;;;16.53;83.09
10127;BME280;13080;42.608;23.362;2023-05-23T07:55:19;155317.09;;;16.63;79.05
10127;BME280;13080;42.608;23.362;2023-05-23T07:57:46;155306.72;;;16.59;78.86
10127;BME280;13080;42.608;23.362;2023-05-23T08:00:14;155321.03;;;16.65;80.53
10127;BME280;13080;42.608;23.362;2023-05-23T08:02:43;155341.91;;;16.73;79.36
10127;BME280;13080;42.608;23.362;2023-05-23T08:05:09;155343.22;;;16.74;81.71
10127;BME280;13080;42.608;23.362;2023-05-23T08:07:37;155373.25;;;16.86;79.07
10127;BME280;13080;42.608;23.362;2023-05-23T08:10:05;155409.81;;;17.00;80.15
10127;BME280;13080;42.608;23.362;2023-05-23T08:12:32;155437.22;;;17.11;76.90
10127;BME280;13080;42.608;23.362;2023-05-23T08:14:59;155438.53;;;17.11;78.22
10127;BME280;13080;42.608;23.362;2023-05-23T08:17:26;155462.00;;;17.20;80.27
10127;BME280;13080;42.608;23.362;2023-05-23T08:19:54;155481.56;;;17.28;79.10
10127;BME280;13080;42.608;23.362;2023-05-23T08:22:21;155537.69;;;17.50;76.62
10127;BME280;13080;42.608;23.362;2023-05-23T08:24:47;155578.16;;;17.66;74.03
10127;BME280;13080;42.608;23.362;2023-05-23T08:27:14;155597.75;;;17.74;75.03
10127;BME280;13080;42.608;23.362;2023-05-23T08:29:41;155583.38;;;17.68;75.57
10127;BME280;13080;42.608;23.362;2023-05-23T08:32:08;155604.28;;;17.76;71.78
10127;BME280;13080;42.608;23.362;2023-05-23T08:34:35;155608.16;;;17.78;72.92
10127;BME280;13080;42.608;23.362;2023-05-23T08:37:05;155617.38;;;17.81;74.59
10127;BME280;13080;42.608;23.362;2023-05-23T08:39:31;155639.56;;;17.90;74.33
10127;BME280;13080;42.608;23.362;2023-05-23T08:41:58;155634.34;;;17.88;75.30
10127;BME280;13080;42.608;23.362;2023-05-23T08:44:25;155682.63;;;18.07;77.11
10127;BME280;13080;42.608;23.362;2023-05-23T08:46:52;155710.06;;;18.18;72.43
10127;BME280;13080;42.608;23.362;2023-05-23T08:49:21;155750.56;;;18.34;71.08
10127;BME280;13080;42.608;23.362;2023-05-23T08:51:51;155725.75;;;18.24;69.11
10127;BME280;13080;42.608;23.362;2023-05-23T08:54:21;155753.19;;;18.35;70.10
10127;BME280;13080;42.608;23.362;2023-05-23T08:56:48;155767.53;;;18.40;64.24
10127;BME280;13080;42.608;23.362;2023-05-23T08:59:16;155805.44;;;18.55;63.84
10127;BME280;13080;42.608;23.362;2023-05-23T09:01:46;155781.91;;;18.46;61.51
10127;BME280;13080;42.608;23.362;2023-05-23T09:04:14;155819.75;;;18.61;63.37
10127;BME280;13080;42.608;23.362;2023-05-23T09:06:40;155834.16;;;18.66;61.94
10127;BME280;13080;42.608;23.362;2023-05-23T09:09:07;155834.16;;;18.66;63.83
10127;BME280;13080;42.608;23.362;2023-05-23T09:11:36;155827.63;;;18.64;60.23
10127;BME280;13080;42.608;23.362;2023-05-23T09:14:02;155817.19;;;18.60;57.26
10127;BME280;13080;42.608;23.362;2023-05-23T09:16:32;155779.28;;;18.45;57.15
10127;BME280;13080;42.608;23.362;2023-05-23T09:19:09;155777.97;;;18.44;60.41
10127;BME280;13080;42.608;23.362;2023-05-23T09:21:36;155809.34;;;18.57;57.53
10127;BME280;13080;42.608;23.362;2023-05-23T09:24:04;155819.75;;;18.61;57.76
10127;BME280;13080;42.608;23.362;2023-05-23T09:26:31;155838.09;;;18.68;55.51
10127;BME280;13080;42.608;23.362;2023-05-23T09:28:59;155869.47;;;18.80;59.85
10127;BME280;13080;42.608;23.362;2023-05-23T09:31:27;155856.38;;;18.75;56.36
10127;BME280;13080;42.608;23.362;2023-05-23T09:33:57;155876.00;;;18.83;54.62
10127;BME280;13080;42.608;23.362;2023-05-23T09:36:26;155894.28;;;18.90;52.43
10127;BME280;13080;42.608;23.362;2023-05-23T09:38:54;155899.50;;;18.92;55.90
10127;BME280;13080;42.608;23.362;2023-05-23T09:41:22;155912.59;;;18.97;54.23
10127;BME280;13080;42.608;23.362;2023-05-23T09:43:50;155902.16;;;18.93;54.19
10127;BME280;13080;42.608;23.362;2023-05-23T09:46:19;155950.47;;;19.12;52.89
10127;BME280;13080;42.608;23.362;2023-05-23T09:48:46;155960.94;;;19.16;52.61
10127;BME280;13080;42.608;23.362;2023-05-23T09:51:13;155926.94;;;19.03;51.90
10127;BME280;13080;42.608;23.362;2023-05-23T09:53:40;155913.91;;;18.98;58.18
10127;BME280;13080;42.608;23.362;2023-05-23T09:56:09;155921.72;;;19.01;53.55
10127;BME280;13080;42.608;23.362;2023-05-23T09:58:37;155942.66;;;19.09;54.05
10127;BME280;13080;42.608;23.362;2023-05-23T10:01:06;155990.97;;;19.28;52.07
10127;BME280;13080;42.608;23.362;2023-05-23T10:03:41;156007.97;;;19.35;53.87
10127;BME280;13080;42.608;23.362;2023-05-23T10:06:15;156014.53;;;19.37;51.68
10127;BME280;13080;42.608;23.362;2023-05-23T10:08:45;156051.13;;;19.51;54.19
10127;BME280;13080;42.608;23.362;2023-05-23T10:14:13;156043.28;;;19.48;50.89
10127;BME280;13080;42.608;23.362;2023-05-23T10:16:54;156041.94;;;19.48;50.00
10127;BME280;13080;42.608;23.362;2023-05-23T10:19:32;156066.81;;;19.58;51.93
10127;BME280;13080;42.608;23.362;2023-05-23T10:22:05;156028.91;;;19.43;49.93
10127;BME280;13080;42.608;23.362;2023-05-23T10:24:32;156051.13;;;19.51;48.60
10127;BME280;13080;42.608;23.362;2023-05-23T10:27:00;156049.81;;;19.51;49.27
10127;BME280;13080;42.608;23.362;2023-05-23T10:29:28;156065.47;;;19.57;47.51
10127;BME280;13080;42.608;23.362;2023-05-23T10:31:55;156072.03;;;19.60;47.20
10127;BME280;13080;42.608;23.362;2023-05-23T10:34:29;156074.63;;;19.61;50.27
10127;BME280;13080;42.608;23.362;2023-05-23T10:37:01;156081.16;;;19.63;48.80
10127;BME280;13080;42.608;23.362;2023-05-23T10:39:39;156091.63;;;19.67;49.97
10127;BME280;13080;42.608;23.362;2023-05-23T10:42:12;156111.28;;;19.75;50.33
10127;BME280;13080;42.608;23.362;2023-05-23T10:44:41;156112.63;;;19.76;50.38
10127;BME280;13080;42.608;23.362;2023-05-23T10:47:08;156149.19;;;19.90;50.54
10127;BME280;13080;42.608;23.362;2023-05-23T10:49:42;156137.44;;;19.85;50.85
10127;BME280;13080;42.608;23.362;2023-05-23T10:52:10;156133.50;;;19.84;49.11
10127;BME280;13080;42.608;23.362;2023-05-23T10:54:41;156162.25;;;19.95;49.67
10127;BME280;13080;42.608;23.362;2023-05-23T10:57:10;156198.91;;;20.09;49.20
10127;BME280;13080;42.608;23.362;2023-05-23T10:59:38;156217.19;;;20.17;43.38
10127;BME280;13080;42.608;23.362;2023-05-23T11:02:11;156164.91;;;19.96;43.49
10127;BME280;13080;42.608;23.362;2023-05-23T11:04:40;156164.91;;;19.96;47.63
10127;BME280;13080;42.608;23.362;2023-05-23T11:07:28;156194.97;;;20.08;48.59
10127;BME280;13080;42.608;23.362;2023-05-23T11:10:08;156202.78;;;20.11;47.18
10127;BME280;13080;42.608;23.362;2023-05-23T11:12:36;156202.78;;;20.11;40.51
10127;BME280;13080;42.608;23.362;2023-05-23T11:15:18;156172.72;;;19.99;42.38
10127;BME280;13080;42.608;23.362;2023-05-23T11:17:50;156181.91;;;20.03;43.33
10127;BME280;13080;42.608;23.362;2023-05-23T11:20:19;156205.44;;;20.12;45.10
10127;BME280;13080;42.608;23.362;2023-05-23T11:22:59;156219.78;;;20.18;44.86
10127;BME280;13080;42.608;23.362;2023-05-23T11:25:40;156211.97;;;20.14;48.19
10127;BME280;13080;42.608;23.362;2023-05-23T11:28:07;156227.66;;;20.21;46.17
10127;BME280;13080;42.608;23.362;2023-05-23T11:30:34;156228.97;;;20.21;43.48
10127;BME280;13080;42.608;23.362;2023-05-23T11:33:06;156230.25;;;20.22;43.36
10127;BME280;13080;42.608;23.362;2023-05-23T11:35:39;156218.50;;;20.17;44.60
10127;BME280;13080;42.608;23.362;2023-05-23T11:38:06;156227.66;;;20.21;42.36
10127;BME280;13080;42.608;23.362;2023-05-23T11:40:34;156225.03;;;20.20;41.07
10127;BME280;13080;42.608;23.362;2023-05-23T11:43:03;156236.78;;;20.24;45.81
10127;BME280;13080;42.608;23.362;2023-05-23T11:45:30;156253.78;;;20.31;46.64
10127;BME280;13080;42.608;23.362;2023-05-23T11:47:57;156273.44;;;20.39;44.53
10127;BME280;13080;42.608;23.362;2023-05-23T11:50:24;156296.97;;;20.48;42.43
10127;BME280;13080;42.608;23.362;2023-05-23T11:52:54;156262.97;;;20.34;42.61
10127;BME280;13080;42.608;23.362;2023-05-23T11:55:21;156264.25;;;20.35;46.65
10127;BME280;13080;42.608;23.362;2023-05-23T11:57:49;156283.91;;;20.43;44.57
10127;BME280;13080;42.608;23.362;2023-05-23T12:00:17;156315.28;;;20.55;45.59
10127;BME280;13080;42.608;23.362;2023-05-23T12:02:45;156310.03;;;20.53;42.64
10127;BME280;13080;42.608;23.362;2023-05-23T12:05:13;156293.03;;;20.46;42.72
10127;BME280;13080;42.608;23.362;2023-05-23T12:07:40;156329.72;;;20.61;44.53
10127;BME280;13080;42.608;23.362;2023-05-23T12:10:10;156332.31;;;20.62;43.38
10127;BME280;13080;42.608;23.362;2023-05-23T12:12:37;156331.03;;;20.61;43.29
10127;BME280;13080;42.608;23.362;2023-05-23T12:15:04;156331.03;;;20.61;47.99
10127;BME280;13080;42.608;23.362;2023-05-23T12:17:31;156323.16;;;20.58;43.26
10127;BME280;13080;42.608;23.362;2023-05-23T12:19:59;156306.09;;;20.51;42.66
10127;BME280;13080;42.608;23.362;2023-05-23T12:22:27;156293.03;;;20.46;40.01
10127;BME280;13080;42.608;23.362;2023-05-23T12:24:54;156282.56;;;20.42;42.80
10127;BME280;13080;42.608;23.362;2023-05-23T12:27:27;156304.78;;;20.51;45.92
10127;BME280;13080;42.608;23.362;2023-05-23T12:30:06;156319.25;;;20.57;43.93
10127;BME280;13080;42.608;23.362;2023-05-23T12:32:38;156341.50;;;20.65;47.31
10127;BME280;13080;42.608;23.362;2023-05-23T12:35:05;156384.63;;;20.82;47.59
10127;BME280;13080;42.608;23.362;2023-05-23T12:37:32;156417.34;;;20.95;44.56
10127;BME280;13080;42.608;23.362;2023-05-23T12:40:09;156429.13;;;21.00;42.80
10127;BME280;13080;42.608;23.362;2023-05-23T12:42:48;156433.06;;;21.01;44.66
10127;BME280;13080;42.608;23.362;2023-05-23T12:45:16;156391.16;;;20.85;40.99
10127;BME280;13080;42.608;23.362;2023-05-23T12:47:43;156375.50;;;20.79;41.11